ラパス の空港の天気 - METARとTAF

エル・アルト国際空港 ( SLLP / LPB ) - ボリビア ラパス
飛行場実況気象(Metar)
観測時間08/22 12:00 BOT (08/22 16:00 UTC)
風向・風速南南東 3m/s
視程9000m
天気現象
少しの雲 雲底高度 610m
気温13℃
湿度30%
気圧1041hPa
METARSLLP 221600Z 16005KT 090V200 9000 FEW020 13/M04 Q1041
過去の天気等 Google飛行場航空写真 Wunderground天気予報

過去48時間のMETAR

飛行場予報(TAF)
発表時間: 8/22 06:25 BOT (8/22 10:25 UTC)
予報対象時間: 22日8時 BOT ~ 23日8時 BOT
風向・風速南東 4m/s
視程10km以上
少しの雲 雲底高度 520m
22日19時 BOT ~ 22日21時 BOT に徐々に
風向・風速東北東 3m/s
23日0時 BOT ~ 23日2時 BOT に徐々に
TAF SLLP 221025Z 2212/2312 13008KT 9999 FEW017 TX15/2220Z TNM04/2310Z
BECMG 2223/2301 07005KT
BECMG 2304/2306 3000E VCFG FEW002 SCT012